DCA weather

Ronald Reagan Washington National Airport
Washington, District of Columbia, United States

Public forecast

Using degrees Fahrenheit for public forecast. Weather courtesy of forecast.io.

METAR (pilot weather report)

Retrieved 2017/10/24 06:03 UTC (33 minutes ago):

KDCA 240603Z 16014G19KT 10SM -RA FEW025 BKN037 OVC100 22/20 A2974 RMK AO2 P0000 T02220200

TAF (pilot weather forecast)

Retrieved 2017/10/24 06:24 UTC (12 minutes ago):

TAF KDCA 240522Z 2406/2506 19011KT P6SM FEW019 BKN028 OVC040 WS020/16045KT FM240900 18008KT 4SM SHRA OVC025 FM241100 19009KT 4SM SHRA OVC015 FM241200 19008KT P6SM BKN010 FM241400 19008KT P6SM SCT030 FM242100 20008KT P6SM FEW250 FM250200 27005KT P6SM SCT060